Time;durP1;ratioP1;P1;durP2;ratioP2;P2;SDS_P1;SDS_P2;PMS_P1;PMS_P2;Temp;Humidity;BMP_temperature;BMP_pressure;BME280_temperature;BME280_humidity;BME280_pressure;Samples;Min_cycle;Max_cycle;Signal;HPM_P1;HPM_P2
2021/09/19 00:02:05;;;;;;;20.80;11.30;;;;;;;;;;6204227;23;20194;-91
2021/09/19 00:05:11;;;;;;;19.15;11.63;;;;;;;;;;6202480;23;20199;-90
2021/09/19 00:08:18;;;;;;;17.98;11.80;;;;;;;;;;6201331;22;20176;-89
2021/09/19 00:11:23;;;;;;;28.65;12.90;;;;;;;;;;6201673;22;20500;-90
2021/09/19 00:14:29;;;;;;;22.95;13.23;;;;;;;;;;6202307;23;20221;-91
2021/09/19 00:17:37;;;;;;;18.73;12.52;;;;;;;;;;6202835;23;20196;-90
2021/09/19 00:20:42;;;;;;;18.77;10.88;;;;;;;;;;6202471;22;20167;-89
2021/09/19 00:23:49;;;;;;;16.73;10.60;;;;;;;;;;6200910;22;20231;-90
2021/09/19 00:26:54;;;;;;;16.80;10.40;;;;;;;;;;6201218;22;20266;-91
2021/09/19 00:29:59;;;;;;;17.73;10.13;;;;;;;;;;6200750;23;20168;-90
2021/09/19 00:33:04;;;;;;;18.05;10.82;;;;;;;;;;6200745;22;20577;-90
2021/09/19 00:36:10;;;;;;;19.88;11.90;;;;;;;;;;6200518;23;20171;-91
2021/09/19 00:39:17;;;;;;;25.98;12.23;;;;;;;;;;6200748;23;20217;-92
2021/09/19 00:42:23;;;;;;;19.13;11.55;;;;;;;;;;6203477;22;20212;-91
2021/09/19 00:45:29;;;;;;;18.73;10.68;;;;;;;;;;6203006;23;20195;-91
2021/09/19 00:48:34;;;;;;;16.65;10.63;;;;;;;;;;6202089;23;20151;-88
2021/09/19 00:51:39;;;;;;;18.70;11.02;;;;;;;;;;6202890;23;20172;-90
2021/09/19 00:54:46;;;;;;;20.35;11.48;;;;;;;;;;6202593;22;20183;-92
2021/09/19 00:57:53;;;;;;;29.25;11.38;;;;;;;;;;6203634;23;20175;-90
2021/09/19 01:00:59;;;;;;;18.48;11.35;;;;;;;;;;6201716;22;20187;-93
2021/09/19 01:04:04;;;;;;;19.70;11.10;;;;;;;;;;6201561;22;20239;-91
2021/09/19 01:07:09;;;;;;;30.25;11.52;;;;;;;;;;6201038;23;20639;-91
2021/09/19 01:10:17;;;;;;;20.15;10.98;;;;;;;;;;6201069;23;20171;-90
2021/09/19 01:13:25;;;;;;;21.40;10.75;;;;;;;;;;6200311;22;20163;-91
2021/09/19 01:16:31;;;;;;;23.33;11.52;;;;;;;;;;6202345;22;20236;-90
2021/09/19 01:19:37;;;;;;;18.55;11.70;;;;;;;;;;6201152;22;20168;-90
2021/09/19 01:22:44;;;;;;;39.72;11.88;;;;;;;;;;6200874;23;20171;-90
2021/09/19 01:25:51;;;;;;;85.97;12.32;;;;;;;;;;6201163;23;20192;-89
2021/09/19 01:28:57;;;;;;;25.20;11.95;;;;;;;;;;6200804;23;20511;-91
2021/09/19 01:32:03;;;;;;;27.75;11.82;;;;;;;;;;6201235;23;20183;-91
2021/09/19 01:35:09;;;;;;;127.07;13.55;;;;;;;;;;6200474;23;20180;-92
2021/09/19 01:38:17;;;;;;;34.80;11.13;;;;;;;;;;6199566;23;20682;-91
2021/09/19 01:41:25;;;;;;;27.75;11.60;;;;;;;;;;6202491;22;20167;-92
2021/09/19 01:44:31;;;;;;;32.83;10.88;;;;;;;;;;6201451;22;20219;-93
2021/09/19 01:50:31;;;;;;;20.17;11.20;;;;;;;;;;6172635;23;20197;-90
2021/09/19 01:53:37;;;;;;;21.42;10.52;;;;;;;;;;6169790;23;20172;-90
2021/09/19 01:56:44;;;;;;;20.23;9.77;;;;;;;;;;6153097;23;20168;-90
2021/09/19 01:59:50;;;;;;;21.02;10.20;;;;;;;;;;6153677;23;20212;-90
2021/09/19 02:02:55;;;;;;;20.38;9.70;;;;;;;;;;6155161;23;20196;-91
2021/09/19 02:06:00;;;;;;;16.88;9.52;;;;;;;;;;6153770;23;20663;-92
2021/09/19 02:09:05;;;;;;;31.00;9.35;;;;;;;;;;6154712;23;20168;-91
2021/09/19 02:12:14;;;;;;;48.60;9.57;;;;;;;;;;6153197;23;20164;-88
2021/09/19 02:15:19;;;;;;;27.77;10.07;;;;;;;;;;6154681;23;20176;-89
2021/09/19 02:18:25;;;;;;;20.98;9.02;;;;;;;;;;6152963;23;20172;-90
2021/09/19 02:21:30;;;;;;;19.95;8.73;;;;;;;;;;6153204;23;20499;-90
2021/09/19 02:24:35;;;;;;;29.63;8.25;;;;;;;;;;6155151;23;20167;-91
2021/09/19 02:27:42;;;;;;;15.57;9.55;;;;;;;;;;6155640;23;20261;-91
2021/09/19 02:30:49;;;;;;;20.58;10.73;;;;;;;;;;6154282;23;20155;-91
2021/09/19 02:33:54;;;;;;;30.83;9.70;;;;;;;;;;6171586;23;20508;-91
2021/09/19 02:37:00;;;;;;;17.05;8.65;;;;;;;;;;6152963;23;20179;-89
2021/09/19 02:40:05;;;;;;;13.40;8.57;;;;;;;;;;6153472;23;20176;-91
2021/09/19 02:43:11;;;;;;;11.93;8.20;;;;;;;;;;6153905;23;20571;-91
2021/09/19 02:46:17;;;;;;;15.50;7.82;;;;;;;;;;6155454;23;20237;-91
2021/09/19 02:49:22;;;;;;;11.45;7.78;;;;;;;;;;6154242;23;20184;-90
2021/09/19 02:52:27;;;;;;;21.08;8.52;;;;;;;;;;6154435;23;20179;-92
2021/09/19 02:55:32;;;;;;;21.00;9.65;;;;;;;;;;6153961;23;20160;-90
2021/09/19 02:58:38;;;;;;;19.08;8.75;;;;;;;;;;6171363;23;20172;-92
2021/09/19 03:01:44;;;;;;;18.58;10.02;;;;;;;;;;6155678;23;20173;-89
2021/09/19 03:04:49;;;;;;;20.65;9.43;;;;;;;;;;6171872;23;20152;-91
2021/09/19 03:07:55;;;;;;;15.85;9.43;;;;;;;;;;6156076;23;20252;-91
2021/09/19 03:11:00;;;;;;;23.73;9.05;;;;;;;;;;6155621;23;20225;-91
2021/09/19 03:14:07;;;;;;;48.35;9.43;;;;;;;;;;6153787;23;20172;-90
2021/09/19 03:17:12;;;;;;;20.50;8.80;;;;;;;;;;6172093;23;20181;-92
2021/09/19 03:20:18;;;;;;;23.45;9.02;;;;;;;;;;6152917;23;20165;-91
2021/09/19 03:23:23;;;;;;;23.73;9.02;;;;;;;;;;6153011;23;20164;-93
2021/09/19 03:26:28;;;;;;;23.27;9.15;;;;;;;;;;6153517;23;20261;-92
2021/09/19 03:29:35;;;;;;;15.15;9.10;;;;;;;;;;6153131;23;20212;-92
2021/09/19 03:32:40;;;;;;;23.30;8.75;;;;;;;;;;6154109;23;20200;-91
2021/09/19 03:35:45;;;;;;;16.33;8.90;;;;;;;;;;6153149;23;20224;-91
2021/09/19 03:38:50;;;;;;;45.15;9.25;;;;;;;;;;6153983;23;20197;-91
2021/09/19 03:41:56;;;;;;;17.15;9.95;;;;;;;;;;6154065;23;20169;-89
2021/09/19 03:45:02;;;;;;;27.45;9.98;;;;;;;;;;6153021;23;20172;-91
2021/09/19 03:48:09;;;;;;;18.33;9.13;;;;;;;;;;6153868;23;20232;-91
2021/09/19 03:51:15;;;;;;;13.45;8.75;;;;;;;;;;6155297;23;20172;-91
2021/09/19 03:54:20;;;;;;;14.38;9.10;;;;;;;;;;6154351;23;20226;-92
2021/09/19 03:57:26;;;;;;;20.85;8.63;;;;;;;;;;6154856;23;20584;-92
2021/09/19 04:04:46;;;;;;;14.45;7.65;;;;;;;;;;6174910;23;20157;-92
2021/09/19 04:07:51;;;;;;;24.25;9.25;;;;;;;;;;6156581;23;20205;-93
2021/09/19 04:10:57;;;;;;;36.53;8.55;;;;;;;;;;6157054;23;20153;-91
2021/09/19 04:14:02;;;;;;;14.55;8.93;;;;;;;;;;6156694;23;20238;-92
2021/09/19 04:17:07;;;;;;;13.57;9.10;;;;;;;;;;6155246;23;20620;-90
2021/09/19 04:20:14;;;;;;;16.05;8.07;;;;;;;;;;6154270;23;20168;-90
2021/09/19 04:23:22;;;;;;;18.80;8.05;;;;;;;;;;6155144;23;20172;-89
2021/09/19 04:26:27;;;;;;;21.17;8.50;;;;;;;;;;6154075;23;20192;-91
2021/09/19 04:29:33;;;;;;;12.75;7.57;;;;;;;;;;6172571;23;20172;-90
2021/09/19 04:32:38;;;;;;;20.08;8.40;;;;;;;;;;6154904;23;20152;-91
2021/09/19 04:35:45;;;;;;;14.90;8.07;;;;;;;;;;6154840;23;20207;-91
2021/09/19 04:38:50;;;;;;;11.82;7.38;;;;;;;;;;6155533;23;20211;-91
2021/09/19 04:41:56;;;;;;;13.38;7.38;;;;;;;;;;6155336;23;20189;-91
2021/09/19 04:45:01;;;;;;;12.60;7.40;;;;;;;;;;6156020;23;20168;-92
2021/09/19 04:48:06;;;;;;;12.07;7.78;;;;;;;;;;6154746;23;20203;-91
2021/09/19 04:51:13;;;;;;;13.20;7.70;;;;;;;;;;6154299;23;20172;-91
2021/09/19 04:54:17;;;;;;;19.52;8.05;;;;;;;;;;6156025;23;20255;-91
2021/09/19 04:57:22;;;;;;;21.63;7.68;;;;;;;;;;6155742;23;20169;-89
2021/09/19 05:00:27;;;;;;;11.30;7.80;;;;;;;;;;6155319;23;20219;-91
2021/09/19 05:03:32;;;;;;;25.42;7.63;;;;;;;;;;6156571;23;20608;-90
2021/09/19 05:06:39;;;;;;;11.80;7.88;;;;;;;;;;6154134;23;20276;-90
2021/09/19 05:09:44;;;;;;;25.77;7.65;;;;;;;;;;6154673;23;20220;-90
2021/09/19 05:12:50;;;;;;;15.13;7.93;;;;;;;;;;6172188;23;20156;-90
2021/09/19 05:15:55;;;;;;;18.73;7.57;;;;;;;;;;6156874;23;20180;-91
2021/09/19 05:19:01;;;;;;;10.10;7.07;;;;;;;;;;6156949;23;20184;-91
2021/09/19 05:22:07;;;;;;;12.57;7.80;;;;;;;;;;6156183;23;20619;-89
2021/09/19 05:25:12;;;;;;;12.77;8.20;;;;;;;;;;6155736;23;20152;-89
2021/09/19 05:28:18;;;;;;;11.40;6.90;;;;;;;;;;6156444;23;20243;-91
2021/09/19 05:31:23;;;;;;;11.35;7.65;;;;;;;;;;6155629;23;20173;-91
2021/09/19 05:34:31;;;;;;;15.90;6.85;;;;;;;;;;6155916;23;20180;-92
2021/09/19 05:37:38;;;;;;;10.27;6.53;;;;;;;;;;6157032;23;20175;-92
2021/09/19 05:40:42;;;;;;;10.38;7.13;;;;;;;;;;6155476;23;20239;-92
2021/09/19 05:43:48;;;;;;;11.10;7.03;;;;;;;;;;6153806;23;20160;-91
2021/09/19 05:46:53;;;;;;;36.05;7.57;;;;;;;;;;6154652;23;20231;-91
2021/09/19 05:49:59;;;;;;;32.33;7.97;;;;;;;;;;6155367;23;20183;-91
2021/09/19 05:53:06;;;;;;;12.48;6.78;;;;;;;;;;6156310;23;20208;-93
2021/09/19 05:56:11;;;;;;;13.75;6.82;;;;;;;;;;6155623;23;20167;-91
2021/09/19 05:59:16;;;;;;;31.60;7.30;;;;;;;;;;6154743;23;20223;-91
2021/09/19 06:02:22;;;;;;;9.65;6.60;;;;;;;;;;6154671;23;20172;-89
2021/09/19 06:05:28;;;;;;;9.18;6.30;;;;;;;;;;6155056;23;20168;-91
2021/09/19 06:08:35;;;;;;;8.55;6.00;;;;;;;;;;6155203;23;20172;-90
2021/09/19 06:11:42;;;;;;;14.50;6.50;;;;;;;;;;6156896;23;20152;-91
2021/09/19 06:14:49;;;;;;;14.07;6.30;;;;;;;;;;6156048;23;20175;-92
2021/09/19 06:17:55;;;;;;;9.70;6.20;;;;;;;;;;6139212;23;20632;-91
2021/09/19 06:21:00;;;;;;;10.40;6.10;;;;;;;;;;6157302;23;20204;-90
2021/09/19 06:24:07;;;;;;;13.98;6.68;;;;;;;;;;6157060;23;20708;-90
2021/09/19 06:27:12;;;;;;;11.63;6.35;;;;;;;;;;6157288;23;20268;-92
2021/09/19 06:30:18;;;;;;;13.80;6.28;;;;;;;;;;6155205;23;20168;-89
2021/09/19 06:33:25;;;;;;;9.05;6.40;;;;;;;;;;6155418;23;20152;-90
2021/09/19 06:36:31;;;;;;;8.65;6.28;;;;;;;;;;6157440;23;20152;-91
2021/09/19 06:39:37;;;;;;;9.00;6.43;;;;;;;;;;6156752;23;20180;-90
2021/09/19 06:42:43;;;;;;;10.45;6.07;;;;;;;;;;6157797;23;20177;-92
2021/09/19 06:45:49;;;;;;;7.57;5.60;;;;;;;;;;6156270;23;20168;-92
2021/09/19 06:48:54;;;;;;;8.70;5.95;;;;;;;;;;6156070;23;20216;-91
2021/09/19 06:52:00;;;;;;;7.70;5.68;;;;;;;;;;6155930;23;20171;-92
2021/09/19 06:55:07;;;;;;;11.30;5.45;;;;;;;;;;6156743;23;20168;-92
2021/09/19 06:58:12;;;;;;;10.18;5.45;;;;;;;;;;6156019;23;20171;-93
2021/09/19 07:01:21;;;;;;;6.38;4.82;;;;;;;;;;6155351;23;20185;-92
2021/09/19 07:04:26;;;;;;;7.63;4.70;;;;;;;;;;6156857;23;20208;-91
2021/09/19 07:07:34;;;;;;;7.00;4.43;;;;;;;;;;6155767;23;20191;-91
2021/09/19 07:10:41;;;;;;;6.20;4.60;;;;;;;;;;6157537;23;20168;-91
2021/09/19 07:13:46;;;;;;;5.97;4.57;;;;;;;;;;6156466;23;20171;-90
2021/09/19 07:16:52;;;;;;;4.93;3.80;;;;;;;;;;6156442;23;20179;-90
2021/09/19 07:19:59;;;;;;;5.88;4.30;;;;;;;;;;6156110;23;20173;-90
2021/09/19 07:23:09;;;;;;;6.00;4.43;;;;;;;;;;6158434;23;20168;-90
2021/09/19 07:26:16;;;;;;;6.20;4.60;;;;;;;;;;6157942;23;20221;-89
2021/09/19 07:29:21;;;;;;;7.07;4.78;;;;;;;;;;6157944;23;20172;-91
2021/09/19 07:32:28;;;;;;;8.60;4.93;;;;;;;;;;6156444;23;20237;-91
2021/09/19 07:35:34;;;;;;;9.43;5.18;;;;;;;;;;6158028;23;20177;-90
2021/09/19 07:38:39;;;;;;;6.38;4.70;;;;;;;;;;6155977;23;20168;-92
2021/09/19 07:41:53;;;;;;;5.68;4.53;;;;;;;;;;6159491;23;20173;-90
2021/09/19 07:44:58;;;;;;;6.30;4.40;;;;;;;;;;6159175;23;20177;-91
2021/09/19 07:48:09;;;;;;;5.32;4.22;;;;;;;;;;6174488;23;20249;-90
2021/09/19 07:51:15;;;;;;;6.13;4.22;;;;;;;;;;6159651;23;20265;-90
2021/09/19 07:54:22;;;;;;;5.88;4.13;;;;;;;;;;6159273;23;20156;-91
2021/09/19 07:57:34;;;;;;;5.10;3.97;;;;;;;;;;6159929;23;20149;-91
2021/09/19 08:00:41;;;;;;;8.02;4.50;;;;;;;;;;6157483;23;20165;-90
2021/09/19 08:03:47;;;;;;;6.50;4.10;;;;;;;;;;6158359;23;20214;-91
2021/09/19 08:06:53;;;;;;;8.55;3.60;;;;;;;;;;6158297;23;20230;-90
2021/09/19 08:09:59;;;;;;;5.10;4.03;;;;;;;;;;6157352;23;20173;-90
2021/09/19 08:13:06;;;;;;;7.43;3.80;;;;;;;;;;6157955;23;20264;-89
2021/09/19 08:16:12;;;;;;;4.95;3.95;;;;;;;;;;6156189;23;20168;-93
2021/09/19 08:19:18;;;;;;;4.43;3.60;;;;;;;;;;6174723;23;20168;-93
2021/09/19 08:22:24;;;;;;;4.68;3.45;;;;;;;;;;6155931;23;20189;-91
2021/09/19 08:25:33;;;;;;;5.03;3.40;;;;;;;;;;6156911;23;20220;-89
2021/09/19 08:28:41;;;;;;;4.18;3.13;;;;;;;;;;6158099;23;20203;-91
2021/09/19 08:31:46;;;;;;;4.22;2.60;;;;;;;;;;6156589;23;20616;-91
2021/09/19 08:34:55;;;;;;;7.28;3.15;;;;;;;;;;6155065;23;20261;-93
2021/09/19 08:38:00;;;;;;;3.83;2.53;;;;;;;;;;6156272;23;20176;-88
2021/09/19 08:41:05;;;;;;;3.30;2.80;;;;;;;;;;6156763;23;20169;-91
2021/09/19 08:44:12;;;;;;;3.95;2.30;;;;;;;;;;6156955;23;20205;-92
2021/09/19 08:47:17;;;;;;;3.05;2.10;;;;;;;;;;6155419;23;20167;-92
2021/09/19 08:50:23;;;;;;;3.88;1.70;;;;;;;;;;6157017;23;20191;-92
2021/09/19 08:53:33;;;;;;;2.92;2.17;;;;;;;;;;6157356;23;20172;-90
2021/09/19 08:56:38;;;;;;;2.60;2.00;;;;;;;;;;6160957;23;20188;-92
2021/09/19 08:59:47;;;;;;;2.30;1.70;;;;;;;;;;6158517;23;20171;-91
2021/09/19 09:02:54;;;;;;;2.53;1.60;;;;;;;;;;6157270;23;20167;-91
2021/09/19 09:06:02;;;;;;;2.88;1.67;;;;;;;;;;6155264;23;20168;-91
2021/09/19 09:09:17;;;;;;;1.98;1.60;;;;;;;;;;6157777;23;20223;-93
2021/09/19 09:12:24;;;;;;;3.25;1.65;;;;;;;;;;6157809;23;20502;-92
2021/09/19 09:15:36;;;;;;;1.83;1.42;;;;;;;;;;6160151;23;20171;-92
2021/09/19 09:18:43;;;;;;;5.10;3.47;;;;;;;;;;6158478;23;20217;-91
2021/09/19 09:21:49;;;;;;;4.18;2.38;;;;;;;;;;6160074;23;20171;-91
2021/09/19 09:25:14;;;;;;;2.65;2.10;;;;;;;;;;6159048;23;20156;-90
2021/09/19 09:28:20;;;;;;;3.08;2.30;;;;;;;;;;6159873;23;20241;-93
2021/09/19 09:31:42;;;;;;;8.30;6.75;;;;;;;;;;6160378;23;20155;-92
2021/09/19 09:34:49;;;;;;;2.90;2.60;;;;;;;;;;6161836;23;20213;-92
2021/09/19 09:41:14;;;;;;;3.35;1.45;;;;;;;;;;6159617;23;20171;-90
2021/09/19 09:44:28;;;;;;;2.30;1.60;;;;;;;;;;6159528;23;20167;-91
2021/09/19 09:47:42;;;;;;;3.38;1.70;;;;;;;;;;6160770;23;20235;-93
2021/09/19 09:50:48;;;;;;;1.63;1.33;;;;;;;;;;6177518;23;20184;-92
2021/09/19 09:54:03;;;;;;;1.25;1.05;;;;;;;;;;6160560;23;20215;-94
2021/09/19 09:57:09;;;;;;;1.75;1.33;;;;;;;;;;6159344;23;20196;-91
2021/09/19 10:00:16;;;;;;;1.27;1.15;;;;;;;;;;6157422;23;20250;-92
2021/09/19 10:03:24;;;;;;;1.30;1.20;;;;;;;;;;6155988;23;20164;-91
2021/09/19 10:06:30;;;;;;;1.40;1.20;;;;;;;;;;6155785;23;20171;-91
2021/09/19 10:09:35;;;;;;;1.98;1.38;;;;;;;;;;6154845;23;20186;-92
2021/09/19 10:12:42;;;;;;;1.92;1.30;;;;;;;;;;6154474;23;20164;-92
2021/09/19 10:15:48;;;;;;;2.00;1.38;;;;;;;;;;6156759;23;20176;-93
2021/09/19 10:18:56;;;;;;;1.83;1.45;;;;;;;;;;6153864;23;20176;-93
2021/09/19 10:22:01;;;;;;;3.17;1.35;;;;;;;;;;6170854;23;20176;-91
2021/09/19 10:25:08;;;;;;;3.47;1.50;;;;;;;;;;6154793;23;20175;-92
2021/09/19 10:28:18;;;;;;;2.95;1.42;;;;;;;;;;6158184;23;20247;-92
2021/09/19 10:31:31;;;;;;;1.50;1.30;;;;;;;;;;6157597;23;20175;-93
2021/09/19 10:34:39;;;;;;;1.98;1.20;;;;;;;;;;6156996;23;20168;-95
2021/09/19 10:37:52;;;;;;;3.75;1.38;;;;;;;;;;6157642;23;20168;-92
2021/09/19 10:41:14;;;;;;;1.20;1.10;;;;;;;;;;6157348;23;20478;-92
2021/09/19 10:44:20;;;;;;;1.95;1.10;;;;;;;;;;6156377;23;20168;-92
2021/09/19 10:47:31;;;;;;;1.30;1.10;;;;;;;;;;6159300;23;20221;-92
2021/09/19 10:54:01;;;;;;;1.75;1.42;;;;;;;;;;6155238;23;20498;-94
2021/09/19 10:57:15;;;;;;;2.40;1.38;;;;;;;;;;6154660;23;20497;-93
2021/09/19 11:00:21;;;;;;;3.05;1.20;;;;;;;;;;6155981;23;20168;-92
2021/09/19 11:03:30;;;;;;;1.42;1.20;;;;;;;;;;6154582;23;20172;-89
2021/09/19 11:06:38;;;;;;;1.25;1.15;;;;;;;;;;6153828;23;20504;-91
2021/09/19 11:09:44;;;;;;;3.20;1.20;;;;;;;;;;6153584;23;20232;-92
2021/09/19 11:12:50;;;;;;;4.32;1.38;;;;;;;;;;6156803;23;20251;-91
2021/09/19 11:16:11;;;;;;;2.25;1.50;;;;;;;;;;6156564;23;20651;-92
2021/09/19 11:19:23;;;;;;;1.85;1.30;;;;;;;;;;6156512;23;20219;-92
2021/09/19 11:22:39;;;;;;;2.35;1.30;;;;;;;;;;6158477;23;20168;-92
2021/09/19 11:25:46;;;;;;;1.30;1.20;;;;;;;;;;6159644;23;20168;-92
2021/09/19 11:28:53;;;;;;;1.83;1.15;;;;;;;;;;6159337;23;20180;-93
2021/09/19 11:32:04;;;;;;;3.08;1.40;;;;;;;;;;6160785;23;20171;-92
2021/09/19 11:35:11;;;;;;;2.22;1.63;;;;;;;;;;6161039;23;20224;-92
2021/09/19 11:38:22;;;;;;;1.83;1.40;;;;;;;;;;6160935;23;20210;-93
2021/09/19 11:41:28;;;;;;;2.75;1.60;;;;;;;;;;6162558;23;20168;-93
2021/09/19 11:44:34;;;;;;;1.45;1.20;;;;;;;;;;6160713;23;20199;-93
2021/09/19 11:47:46;;;;;;;1.10;1.00;;;;;;;;;;6160338;23;20192;-93
2021/09/19 22:00:34;;;;;;;4.90;2.13;;;;;;;;;;6128124;23;20196;-92
2021/09/19 22:03:41;;;;;;;4.00;2.22;;;;;;;;;;6167576;23;20277;-91
2021/09/19 22:06:46;;;;;;;2.85;2.13;;;;;;;;;;6166903;23;20508;-91
2021/09/19 22:09:53;;;;;;;3.20;2.22;;;;;;;;;;6166452;23;20252;-89
2021/09/19 22:13:08;;;;;;;5.68;2.35;;;;;;;;;;6167249;23;20238;-91
2021/09/19 22:16:15;;;;;;;2.58;1.85;;;;;;;;;;6168553;23;20491;-90
2021/09/19 22:19:20;;;;;;;3.78;2.17;;;;;;;;;;6168178;23;20160;-89
2021/09/19 22:22:25;;;;;;;2.75;2.10;;;;;;;;;;6168310;23;20164;-92
2021/09/19 22:25:30;;;;;;;3.03;2.08;;;;;;;;;;6165795;23;20219;-91
2021/09/19 22:28:36;;;;;;;3.97;2.13;;;;;;;;;;6167584;23;20301;-89
2021/09/19 22:31:43;;;;;;;4.43;2.17;;;;;;;;;;6168696;23;20193;-91
2021/09/19 22:34:54;;;;;;;2.60;2.00;;;;;;;;;;6165995;23;20176;-91
2021/09/19 22:37:58;;;;;;;3.20;2.30;;;;;;;;;;6169106;23;20181;-90
2021/09/19 22:41:03;;;;;;;4.57;2.05;;;;;;;;;;6165905;23;20173;-91
2021/09/19 22:44:09;;;;;;;4.45;2.65;;;;;;;;;;6166260;23;20165;-90
2021/09/19 22:47:16;;;;;;;4.68;2.20;;;;;;;;;;6166408;23;20270;-90
2021/09/19 22:50:21;;;;;;;4.88;2.30;;;;;;;;;;6167209;23;20196;-91
2021/09/19 22:53:26;;;;;;;5.88;2.55;;;;;;;;;;6167955;23;20168;-90
2021/09/19 22:56:32;;;;;;;4.22;2.17;;;;;;;;;;6166346;23;20172;-90
2021/09/19 22:59:37;;;;;;;3.30;2.53;;;;;;;;;;6165915;23;20188;-90
2021/09/19 23:02:44;;;;;;;4.90;2.83;;;;;;;;;;6170642;23;20188;-91
2021/09/19 23:05:49;;;;;;;5.00;2.42;;;;;;;;;;6171183;23;20250;-91
2021/09/19 23:08:56;;;;;;;4.82;3.00;;;;;;;;;;6171888;23;20181;-90
2021/09/19 23:12:01;;;;;;;4.53;3.20;;;;;;;;;;6172534;23;20189;-91
2021/09/19 23:15:10;;;;;;;4.75;2.90;;;;;;;;;;6170334;23;20233;-90
2021/09/19 23:18:17;;;;;;;5.90;3.15;;;;;;;;;;6186795;23;20184;-91
2021/09/19 23:21:23;;;;;;;4.65;3.08;;;;;;;;;;6170853;23;20172;-90
2021/09/19 23:24:29;;;;;;;7.63;3.83;;;;;;;;;;6169723;23;20168;-91
2021/09/19 23:27:36;;;;;;;4.20;2.75;;;;;;;;;;6153515;23;20175;-90
2021/09/19 23:30:41;;;;;;;5.10;3.28;;;;;;;;;;6170694;23;20340;-90
2021/09/19 23:33:49;;;;;;;5.82;3.42;;;;;;;;;;6169351;23;20168;-89
2021/09/19 23:36:55;;;;;;;7.78;3.80;;;;;;;;;;6171359;23;20173;-91
2021/09/19 23:40:00;;;;;;;9.00;3.90;;;;;;;;;;6172183;23;20257;-92
2021/09/19 23:43:07;;;;;;;7.55;4.50;;;;;;;;;;6172155;23;20200;-91
2021/09/19 23:46:13;;;;;;;6.18;3.97;;;;;;;;;;6170508;23;20188;-90
2021/09/19 23:49:20;;;;;;;5.57;4.00;;;;;;;;;;6167789;23;20320;-92
2021/09/19 23:52:25;;;;;;;9.32;4.25;;;;;;;;;;6169910;23;20216;-89
2021/09/19 23:55:31;;;;;;;8.90;4.70;;;;;;;;;;6170981;23;20608;-90
2021/09/19 23:58:36;;;;;;;6.60;5.05;;;;;;;;;;6168060;23;20165;-92
